createdAt,value
2023-03-23T15:59:42.756Z,15.80
2023-03-23T16:02:19.463Z,15.70
2023-03-23T16:04:49.105Z,15.60
2023-03-23T16:07:24.612Z,15.70
2023-03-23T16:09:52.556Z,15.60
2023-03-23T16:12:20.638Z,15.50
2023-03-23T16:14:48.641Z,15.80
2023-03-23T16:17:21.542Z,16.00
2023-03-23T16:19:51.031Z,16.00
2023-03-23T16:22:18.996Z,16.10
2023-03-23T16:24:47.256Z,16.10
2023-03-23T16:27:15.682Z,15.90
2023-03-23T16:30:02.130Z,15.70
2023-03-23T16:32:31.811Z,15.80
2023-03-23T16:35:01.142Z,16.00
2023-03-23T16:37:33.192Z,15.90
2023-03-23T16:40:01.498Z,15.70
2023-03-23T16:42:29.746Z,15.90
2023-03-23T16:44:57.841Z,15.90
2023-03-23T16:47:26.348Z,15.70
2023-03-23T16:49:54.851Z,15.70
2023-03-23T16:52:24.320Z,15.70
2023-03-23T16:54:52.386Z,15.70
2023-03-23T16:57:20.901Z,15.60
2023-03-23T16:59:49.072Z,15.50
2023-03-23T17:02:17.032Z,15.50
2023-03-23T17:04:46.220Z,15.50
2023-03-23T17:07:15.138Z,15.40
2023-03-23T17:09:44.431Z,15.30
2023-03-23T17:12:12.433Z,15.20
2023-03-23T17:14:40.413Z,15.10
2023-03-23T17:17:10.100Z,15.10
2023-03-23T17:19:38.287Z,15.10
2023-03-23T17:22:06.320Z,15.00
2023-03-23T17:24:34.269Z,14.90
2023-03-23T17:27:03.530Z,14.90
2023-03-23T17:29:31.583Z,14.90
2023-03-23T17:31:59.540Z,14.80
2023-03-23T17:34:27.468Z,14.70
2023-03-23T17:36:55.413Z,14.60
2023-03-23T17:39:23.494Z,14.50
2023-03-23T17:41:51.509Z,14.50
2023-03-23T17:44:21.078Z,14.40
2023-03-23T17:46:49.121Z,14.40
2023-03-23T17:49:17.524Z,14.30
2023-03-23T17:51:45.703Z,14.20
2023-03-23T17:54:13.998Z,14.20
2023-03-23T17:56:42.086Z,14.10
2023-03-23T17:59:10.133Z,14.20
2023-03-23T18:01:39.583Z,14.10
2023-03-23T18:04:07.814Z,14.10
2023-03-23T18:06:35.975Z,14.00
2023-03-23T18:09:05.590Z,13.90
2023-03-23T18:11:33.626Z,13.90
2023-03-23T18:14:02.002Z,13.90
2023-03-23T18:16:30.252Z,13.80
2023-03-23T18:18:59.924Z,13.80
2023-03-23T18:21:28.464Z,13.80
2023-03-23T18:23:59.540Z,13.80
2023-03-23T18:26:29.632Z,13.90
2023-03-23T18:28:57.693Z,13.90
2023-03-23T18:31:25.985Z,13.90
2023-03-23T18:33:55.199Z,13.90
2023-03-23T18:36:27.460Z,13.90
2023-03-23T18:38:57.759Z,13.90
2023-03-23T18:41:26.725Z,13.90
2023-03-23T18:43:56.366Z,13.80
2023-03-23T18:46:25.867Z,13.70
2023-03-23T18:48:54.002Z,13.80
2023-03-23T18:51:22.073Z,13.90
2023-03-23T18:53:51.471Z,13.60
2023-03-23T18:56:20.347Z,13.40
2023-03-23T18:58:48.438Z,13.30
2023-03-23T19:01:18.309Z,13.30
2023-03-23T19:03:47.240Z,13.50
2023-03-23T19:06:17.695Z,13.50
2023-03-23T19:08:46.110Z,13.50
2023-03-23T19:11:16.372Z,13.40
2023-03-23T19:13:58.493Z,13.20
2023-03-23T19:16:30.974Z,13.20
2023-03-23T19:18:59.360Z,13.10
2023-03-23T19:21:29.834Z,13.00
2023-03-23T19:23:58.604Z,12.90
2023-03-23T19:26:32.590Z,12.80
2023-03-23T19:31:33.127Z,12.90
2023-03-23T19:34:01.543Z,12.80
2023-03-23T19:36:29.727Z,12.70
2023-03-23T19:38:58.400Z,12.70
2023-03-23T19:41:33.243Z,12.60
2023-03-23T19:44:03.532Z,12.50
2023-03-23T19:46:32.282Z,12.50
2023-03-23T19:49:01.328Z,12.70
2023-03-23T19:51:29.612Z,12.90
2023-03-23T19:53:58.676Z,12.70
2023-03-23T19:56:28.936Z,12.50
2023-03-23T19:58:58.695Z,12.50
2023-03-23T20:01:26.654Z,12.60
2023-03-23T20:03:59.256Z,12.70
2023-03-23T20:06:29.186Z,12.80
2023-03-23T20:09:00.143Z,12.80
2023-03-23T20:11:29.464Z,12.80
2023-03-23T20:13:59.141Z,12.80
2023-03-23T20:16:27.404Z,12.80
2023-03-23T20:18:59.665Z,12.90
2023-03-23T20:21:28.743Z,12.90
2023-03-23T20:23:58.752Z,12.80
2023-03-23T20:26:29.494Z,12.70
2023-03-23T20:28:59.232Z,12.70
2023-03-23T20:31:29.443Z,12.60
2023-03-23T20:34:01.900Z,12.50
2023-03-23T20:36:34.534Z,12.30
2023-03-23T20:39:05.055Z,12.20
2023-03-23T20:41:35.809Z,12.10
2023-03-23T20:44:06.932Z,12.00
2023-03-23T20:46:36.504Z,11.90
2023-03-23T20:49:05.229Z,11.80
2023-03-23T20:51:33.538Z,11.70
2023-03-23T20:54:01.885Z,11.60
2023-03-23T20:56:29.862Z,11.60
2023-03-23T20:58:57.848Z,11.50
2023-03-23T21:01:27.377Z,11.50
2023-03-23T21:03:57.031Z,11.50
2023-03-23T21:06:28.120Z,11.40
2023-03-23T21:08:57.052Z,11.40
2023-03-23T21:11:27.187Z,11.20
2023-03-23T21:13:55.675Z,11.20
2023-03-23T21:16:25.260Z,11.20
2023-03-23T21:18:54.891Z,11.10
2023-03-23T21:21:23.280Z,11.10
2023-03-23T21:23:53.179Z,10.90
2023-03-23T21:26:23.467Z,10.90
2023-03-23T21:28:54.097Z,10.80
2023-03-23T21:31:26.347Z,10.90
2023-03-23T21:33:56.046Z,10.80
2023-03-23T21:36:24.628Z,10.40
2023-03-23T21:38:52.818Z,10.00
2023-03-23T21:41:21.156Z,9.90
2023-03-23T21:43:50.005Z,10.10
2023-03-23T21:46:19.181Z,10.20
2023-03-23T21:48:50.745Z,10.20
2023-03-23T21:51:23.256Z,10.30
2023-03-23T21:53:53.989Z,10.30
2023-03-23T21:56:23.404Z,10.30
2023-03-23T21:58:51.777Z,10.20
2023-03-23T22:01:19.821Z,10.20
2023-03-23T22:03:47.950Z,9.90
2023-03-23T22:06:18.245Z,9.90
2023-03-23T22:08:49.110Z,10.00
2023-03-23T22:11:19.556Z,9.80
2023-03-23T22:13:48.905Z,10.00
2023-03-23T22:16:18.965Z,10.10
2023-03-23T22:18:48.648Z,10.10
2023-03-23T22:21:17.528Z,10.20
2023-03-23T22:23:47.457Z,10.20
2023-03-23T22:26:16.580Z,10.20
2023-03-23T22:28:46.936Z,10.20
2023-03-23T22:31:18.588Z,10.20
2023-03-23T22:33:47.670Z,10.20
2023-03-23T22:36:16.452Z,10.20
2023-03-23T22:38:48.071Z,10.20
2023-03-23T22:41:18.724Z,10.20
2023-03-23T22:43:47.543Z,10.30
2023-03-23T22:46:16.217Z,10.30
2023-03-23T22:48:44.733Z,10.40
2023-03-23T22:51:14.314Z,10.40
2023-03-23T22:53:42.369Z,10.50
2023-03-23T22:56:13.060Z,10.30
2023-03-23T22:58:41.116Z,10.30
2023-03-23T23:01:12.302Z,10.00
2023-03-23T23:03:41.124Z,10.20
2023-03-23T23:06:11.168Z,9.90
2023-03-23T23:08:39.710Z,9.80
2023-03-23T23:11:10.943Z,9.50
2023-03-23T23:13:41.409Z,9.60
2023-03-23T23:16:11.090Z,10.00
2023-03-23T23:18:40.538Z,10.10
2023-03-23T23:21:11.330Z,10.20
2023-03-23T23:23:39.747Z,10.20
2023-03-23T23:26:08.620Z,10.20
2023-03-23T23:28:37.152Z,10.20
2023-03-23T23:31:18.917Z,10.10
2023-03-23T23:33:47.041Z,10.10
2023-03-23T23:36:15.344Z,10.20
2023-03-23T23:38:43.433Z,10.20
2023-03-23T23:41:11.742Z,10.20
2023-03-23T23:43:39.877Z,10.10
2023-03-23T23:46:09.384Z,10.00
2023-03-23T23:48:37.456Z,10.00
2023-03-23T23:51:06.091Z,10.00
2023-03-23T23:53:34.183Z,9.90
2023-03-23T23:56:03.459Z,9.90
2023-03-23T23:58:31.948Z,9.60
